Las Vegas, Nevada
Traffic Map
Current Weather Conditions
Las Vegas, Nevada
Few Clouds
Few Clouds
70°
Feels Like: 70°
Wind Chill: 70° Ceiling: Unl
Heat Index: 70° Visibility: 10mi
Dew Point: 35° Wind: 0mph
Humidity: 28% Direction: ° ()
Pressure: 29.91in Gusts: 0mph
Raw Report DataKLAS 261556Z 00000KT 10SM FEW120 21/02 A2991 RMK AO2 SLP112 T02110017
Traffic Incident Summary
Active as of:
Severity:
Category:
InformationThere was an issue retrieving the traffic information for this location. Please try a different location or try again shortly.
Advertisements
Track Severe Weather on mobile